sensor_id;sensor_type;location;lat;lon;timestamp;temperature;humidity
76787;DHT22;65739;51.482;5.702;2024-02-21T08:31:22;9.10;99.90
76787;DHT22;65739;51.482;5.702;2024-02-21T08:34:40;9.10;99.90
76787;DHT22;65739;51.482;5.702;2024-02-21T08:43:56;9.20;99.90
76787;DHT22;65739;51.482;5.702;2024-02-21T16:58:57;8.80;99.90
76787;DHT22;65739;51.482;5.702;2024-02-21T20:45:39;8.80;99.90
76787;DHT22;65739;51.482;5.702;2024-02-21T21:01:07;8.90;99.90
76787;DHT22;65739;51.482;5.702;2024-02-21T21:03:50;8.90;99.90
76787;DHT22;65739;51.482;5.702;2024-02-21T21:18:13;8.90;99.90
76787;DHT22;65739;51.482;5.702;2024-02-21T21:21:15;8.90;99.90
76787;DHT22;65739;51.482;5.702;2024-02-21T21:56:04;9.10;99.90
76787;DHT22;65739;51.482;5.702;2024-02-21T21:58:38;9.10;99.90
76787;DHT22;65739;51.482;5.702;2024-02-21T22:04:56;9.10;99.90
76787;DHT22;65739;51.482;5.702;2024-02-21T22:07:42;9.10;99.90
76787;DHT22;65739;51.482;5.702;2024-02-21T22:10:47;9.10;99.90
76787;DHT22;65739;51.482;5.702;2024-02-21T22:13:39;9.10;99.90
76787;DHT22;65739;51.482;5.702;2024-02-21T22:24:24;9.10;99.90
76787;DHT22;65739;51.482;5.702;2024-02-21T22:33:41;9.20;99.90
76787;DHT22;65739;51.482;5.702;2024-02-21T22:36:49;9.20;99.90
76787;DHT22;65739;51.482;5.702;2024-02-21T22:39:18;9.20;99.90
76787;DHT22;65739;51.482;5.702;2024-02-21T22:41:55;9.20;99.90
76787;DHT22;65739;51.482;5.702;2024-02-21T22:44:24;9.20;99.90
76787;DHT22;65739;51.482;5.702;2024-02-21T22:46:52;9.20;99.90
76787;DHT22;65739;51.482;5.702;2024-02-21T22:49:18;9.30;99.90
76787;DHT22;65739;51.482;5.702;2024-02-21T22:51:44;9.20;99.90
76787;DHT22;65739;51.482;5.702;2024-02-21T22:54:15;9.30;99.90
76787;DHT22;65739;51.482;5.702;2024-02-21T22:56:52;9.30;99.90
76787;DHT22;65739;51.482;5.702;2024-02-21T22:59:17;9.30;99.90
76787;DHT22;65739;51.482;5.702;2024-02-21T23:01:44;9.30;99.90
76787;DHT22;65739;51.482;5.702;2024-02-21T23:04:17;9.30;99.90
76787;DHT22;65739;51.482;5.702;2024-02-21T23:06:43;9.30;99.90
76787;DHT22;65739;51.482;5.702;2024-02-21T23:09:08;9.40;99.90
76787;DHT22;65739;51.482;5.702;2024-02-21T23:11:37;9.30;99.90
76787;DHT22;65739;51.482;5.702;2024-02-21T23:14:20;9.40;99.90
76787;DHT22;65739;51.482;5.702;2024-02-21T23:16:49;9.40;99.90
76787;DHT22;65739;51.482;5.702;2024-02-21T23:19:20;9.40;99.90
76787;DHT22;65739;51.482;5.702;2024-02-21T23:21:45;9.40;99.90
76787;DHT22;65739;51.482;5.702;2024-02-21T23:24:15;9.40;99.90
76787;DHT22;65739;51.482;5.702;2024-02-21T23:26:40;9.40;99.90
76787;DHT22;65739;51.482;5.702;2024-02-21T23:29:09;9.40;99.90
76787;DHT22;65739;51.482;5.702;2024-02-21T23:31:44;9.40;99.90
76787;DHT22;65739;51.482;5.702;2024-02-21T23:34:21;9.50;99.90
76787;DHT22;65739;51.482;5.702;2024-02-21T23:36:56;9.50;99.90
76787;DHT22;65739;51.482;5.702;2024-02-21T23:39:32;9.50;99.90
76787;DHT22;65739;51.482;5.702;2024-02-21T23:41:58;9.60;99.90
76787;DHT22;65739;51.482;5.702;2024-02-21T23:44:26;9.60;99.90
76787;DHT22;65739;51.482;5.702;2024-02-21T23:46:52;9.60;99.90
76787;DHT22;65739;51.482;5.702;2024-02-21T23:49:17;9.60;99.90
76787;DHT22;65739;51.482;5.702;2024-02-21T23:51:43;9.60;99.90
76787;DHT22;65739;51.482;5.702;2024-02-21T23:54:09;9.60;99.90
76787;DHT22;65739;51.482;5.702;2024-02-21T23:56:59;9.60;99.90
76787;DHT22;65739;51.482;5.702;2024-02-21T23:59:41;9.60;99.90
